createdAt,value
2023-07-03T00:01:18.319Z,10.27
2023-07-03T00:03:44.911Z,9.65
2023-07-03T00:06:11.785Z,11.45
2023-07-03T00:08:38.345Z,10.13
2023-07-03T00:11:06.087Z,9.43
2023-07-03T00:13:33.082Z,10.93
2023-07-03T00:16:03.798Z,9.32
2023-07-03T00:18:31.351Z,9.32
2023-07-03T00:20:58.217Z,9.77
2023-07-03T00:23:25.932Z,12.52
2023-07-03T00:25:53.458Z,10.40
2023-07-03T00:28:20.142Z,10.45
2023-07-03T00:30:46.851Z,9.57
2023-07-03T00:33:13.400Z,9.05
2023-07-03T00:35:40.553Z,11.80
2023-07-03T00:38:07.495Z,11.63
2023-07-03T00:40:34.245Z,11.27
2023-07-03T00:43:02.035Z,8.55
2023-07-03T00:45:28.866Z,10.02
2023-07-03T00:47:55.677Z,9.57
2023-07-03T00:50:22.675Z,11.13
2023-07-03T00:52:57.219Z,8.43
2023-07-03T00:55:24.166Z,8.88
2023-07-03T00:57:52.362Z,10.77
2023-07-03T01:00:22.178Z,7.25
2023-07-03T01:02:57.695Z,11.45
2023-07-03T01:05:30.965Z,12.13
2023-07-03T01:08:00.140Z,9.85
2023-07-03T01:10:29.514Z,11.18
2023-07-03T01:13:00.055Z,11.68
2023-07-03T01:15:29.581Z,13.60
2023-07-03T01:17:58.788Z,10.18
2023-07-03T01:20:29.116Z,11.77
2023-07-03T01:23:07.870Z,10.38
2023-07-03T01:25:37.489Z,11.88
2023-07-03T01:28:05.212Z,10.52
2023-07-03T01:30:32.803Z,12.57
2023-07-03T01:33:00.754Z,11.23
2023-07-03T01:35:28.030Z,10.60
2023-07-03T01:37:56.814Z,14.68
2023-07-03T01:40:25.192Z,12.40
2023-07-03T01:42:54.389Z,13.90
2023-07-03T01:45:21.063Z,10.43
2023-07-03T01:47:47.726Z,12.20
2023-07-03T01:50:19.172Z,10.70
2023-07-03T01:52:52.748Z,13.32
2023-07-03T01:55:36.934Z,13.13
2023-07-03T01:58:30.946Z,10.32
2023-07-03T02:01:05.661Z,10.27
2023-07-03T02:03:38.138Z,12.60
2023-07-03T02:06:14.689Z,11.30
2023-07-03T02:08:41.518Z,15.07
2023-07-03T02:11:19.702Z,14.23
2023-07-03T02:13:46.216Z,10.68
2023-07-03T02:16:12.887Z,11.38
2023-07-03T02:18:39.426Z,9.88
2023-07-03T02:21:08.610Z,13.93
2023-07-03T02:23:35.249Z,10.93
2023-07-03T02:26:01.791Z,13.13
2023-07-03T02:28:28.281Z,13.10
2023-07-03T02:30:54.839Z,12.55
2023-07-03T02:33:21.317Z,14.63
2023-07-03T02:35:47.910Z,10.13
2023-07-03T02:38:16.402Z,11.02
2023-07-03T02:40:43.373Z,12.90
2023-07-03T02:43:10.322Z,13.13
2023-07-03T02:45:42.533Z,14.38
2023-07-03T02:48:10.917Z,11.25
2023-07-03T02:50:37.699Z,12.55
2023-07-03T02:53:04.393Z,12.02
2023-07-03T02:55:30.888Z,12.10
2023-07-03T02:57:59.133Z,13.63
2023-07-03T03:00:26.376Z,11.73
2023-07-03T03:02:52.991Z,12.88
2023-07-03T03:05:19.612Z,11.65
2023-07-03T03:07:46.093Z,15.02
2023-07-03T03:10:12.558Z,15.02
2023-07-03T03:12:39.144Z,14.45
2023-07-03T03:15:06.841Z,12.65
2023-07-03T03:17:33.447Z,9.85
2023-07-03T03:20:00.354Z,12.88
2023-07-03T03:22:26.955Z,16.45
2023-07-03T03:24:53.457Z,14.63
2023-07-03T03:27:19.933Z,13.98
2023-07-03T03:29:48.544Z,12.90
2023-07-03T03:32:15.011Z,13.73
2023-07-03T03:34:42.147Z,13.35
2023-07-03T03:37:08.643Z,13.05
2023-07-03T03:39:35.199Z,14.13
2023-07-03T03:42:01.733Z,15.23
2023-07-03T03:44:28.433Z,13.43
2023-07-03T03:46:55.007Z,13.05
2023-07-03T03:49:22.810Z,14.68
2023-07-03T03:51:49.325Z,10.65
2023-07-03T03:54:15.813Z,15.15
2023-07-03T03:56:42.308Z,12.80
2023-07-03T03:59:08.794Z,12.82
2023-07-03T04:01:35.602Z,12.98
2023-07-03T04:04:02.490Z,12.38
2023-07-03T04:06:29.269Z,12.68
2023-07-03T04:08:59.843Z,10.65
2023-07-03T04:11:27.209Z,14.68
2023-07-03T04:13:53.714Z,13.05
2023-07-03T04:16:20.770Z,14.82
2023-07-03T04:18:47.401Z,13.00
2023-07-03T04:21:14.777Z,11.93
2023-07-03T04:23:42.143Z,16.05
2023-07-03T04:26:08.680Z,14.20
2023-07-03T04:28:35.264Z,14.80
2023-07-03T04:31:03.580Z,11.40
2023-07-03T04:33:30.143Z,16.77
2023-07-03T04:35:56.841Z,15.05
2023-07-03T04:38:25.219Z,17.40
2023-07-03T04:40:53.620Z,14.63
2023-07-03T04:43:21.698Z,13.30
2023-07-03T04:45:51.650Z,15.70
2023-07-03T04:48:19.554Z,13.52
2023-07-03T04:50:49.725Z,13.15
2023-07-03T04:53:18.037Z,13.48
2023-07-03T04:55:44.864Z,16.75
2023-07-03T04:58:12.438Z,13.77
2023-07-03T05:00:41.166Z,12.70
2023-07-03T05:03:09.166Z,13.20
2023-07-03T05:05:36.117Z,13.65
2023-07-03T05:08:02.608Z,13.30
2023-07-03T05:10:29.254Z,14.38
2023-07-03T05:12:55.722Z,15.30
2023-07-03T05:15:25.359Z,15.77
2023-07-03T05:17:57.612Z,12.95
2023-07-03T05:20:26.914Z,13.48
2023-07-03T05:22:53.943Z,13.70
2023-07-03T05:25:20.472Z,10.90
2023-07-03T05:27:47.420Z,15.43
2023-07-03T05:30:14.223Z,12.85
2023-07-03T05:32:40.758Z,12.48
2023-07-03T05:35:08.436Z,17.90
2023-07-03T05:37:37.087Z,15.05
2023-07-03T05:40:06.453Z,20.55
2023-07-03T05:42:32.942Z,14.88
2023-07-03T05:44:59.521Z,10.63
2023-07-03T05:47:26.440Z,13.38
2023-07-03T05:49:53.652Z,12.10
2023-07-03T05:52:20.196Z,12.63
2023-07-03T05:54:46.771Z,13.48
2023-07-03T05:57:13.407Z,11.07
2023-07-03T05:59:41.111Z,11.07
2023-07-03T06:02:10.048Z,14.63
2023-07-03T06:04:36.593Z,12.20
2023-07-03T06:07:03.458Z,12.52
2023-07-03T06:09:30.256Z,10.48
2023-07-03T06:12:00.046Z,14.30
2023-07-03T06:14:26.958Z,14.15
2023-07-03T06:16:55.185Z,14.77
2023-07-03T06:19:22.075Z,10.95
2023-07-03T06:21:48.905Z,11.75
2023-07-03T06:24:15.992Z,12.65
2023-07-03T06:26:44.355Z,13.80
2023-07-03T06:29:14.143Z,12.90
2023-07-03T06:31:41.516Z,10.63
2023-07-03T06:34:08.244Z,10.45
2023-07-03T06:36:36.052Z,11.40
2023-07-03T06:39:06.037Z,10.05
2023-07-03T06:41:35.769Z,10.02
2023-07-03T06:44:04.240Z,11.50
2023-07-03T06:46:31.350Z,10.98
2023-07-03T06:48:58.192Z,11.13
2023-07-03T06:51:25.937Z,10.57
2023-07-03T06:53:52.467Z,9.98
2023-07-03T06:56:19.402Z,11.73
2023-07-03T06:58:48.827Z,10.25
2023-07-03T07:01:16.700Z,15.35
2023-07-03T07:03:43.341Z,13.13
2023-07-03T07:06:16.995Z,10.68
2023-07-03T07:08:44.678Z,9.50
2023-07-03T07:11:13.913Z,11.35
2023-07-03T07:13:43.160Z,8.38
2023-07-03T07:16:14.874Z,12.18
2023-07-03T07:18:41.865Z,9.48
2023-07-03T07:21:08.904Z,10.93
2023-07-03T07:23:35.839Z,11.52
2023-07-03T07:26:02.770Z,9.68
2023-07-03T07:28:29.843Z,8.07
2023-07-03T07:30:56.873Z,11.80
2023-07-03T07:33:23.994Z,11.02
2023-07-03T07:35:52.906Z,9.50
2023-07-03T07:38:20.803Z,8.10
2023-07-03T07:40:47.373Z,10.65
2023-07-03T07:43:14.305Z,9.98
2023-07-03T07:45:40.925Z,10.00
2023-07-03T07:48:08.026Z,11.25
2023-07-03T07:50:36.859Z,10.85
2023-07-03T07:53:03.994Z,11.43
2023-07-03T07:55:32.900Z,9.70
2023-07-03T07:57:59.399Z,10.93
2023-07-03T08:00:25.933Z,9.65
2023-07-03T08:02:52.531Z,9.07
2023-07-03T08:05:19.165Z,9.82
2023-07-03T08:07:46.210Z,8.50
2023-07-03T08:10:13.284Z,9.45
2023-07-03T08:12:39.996Z,9.98
2023-07-03T08:15:07.013Z,8.20
2023-07-03T08:17:33.596Z,8.75
2023-07-03T08:20:00.401Z,8.32
2023-07-03T08:22:28.373Z,8.20
2023-07-03T08:24:54.920Z,8.18
2023-07-03T08:27:21.994Z,9.38
2023-07-03T08:29:48.485Z,7.75
2023-07-03T08:32:16.408Z,9.10
2023-07-03T08:37:08.259Z,8.40
2023-07-03T08:37:30.921Z,7.82
2023-07-03T08:39:57.435Z,7.88
2023-07-03T08:42:34.148Z,7.80
2023-07-03T08:45:01.657Z,10.23
2023-07-03T08:47:31.182Z,10.95
2023-07-03T08:50:02.302Z,10.05
2023-07-03T08:52:42.736Z,9.95
2023-07-03T08:55:15.553Z,12.18
2023-07-03T08:57:42.054Z,10.48
2023-07-03T09:00:12.981Z,7.90
2023-07-03T09:02:50.451Z,8.38
2023-07-03T09:05:24.333Z,11.43
2023-07-03T09:08:04.399Z,10.57
2023-07-03T09:10:52.711Z,11.23
2023-07-03T09:13:35.798Z,12.88
2023-07-03T09:16:13.046Z,9.80
2023-07-03T09:18:45.374Z,12.38
2023-07-03T09:21:12.393Z,8.50
2023-07-03T09:24:00.385Z,9.80
2023-07-03T09:26:44.484Z,8.55
2023-07-03T09:29:12.869Z,8.38
2023-07-03T09:31:39.513Z,10.20
2023-07-03T09:34:06.090Z,14.15
2023-07-03T09:36:36.559Z,10.15
2023-07-03T09:39:11.640Z,8.77
2023-07-03T09:41:38.904Z,10.45
2023-07-03T09:44:13.355Z,11.75
2023-07-03T09:46:41.110Z,8.95
2023-07-03T09:49:29.895Z,13.02
2023-07-03T09:51:59.452Z,14.50
2023-07-03T09:54:31.208Z,13.32
2023-07-03T09:56:58.206Z,11.98
2023-07-03T09:59:25.603Z,7.25
2023-07-03T10:07:07.403Z,9.23
2023-07-03T10:12:32.705Z,10.40
2023-07-03T10:15:07.684Z,10.73
2023-07-03T10:17:38.429Z,10.18
2023-07-03T10:20:12.376Z,10.30
2023-07-03T10:22:42.001Z,11.98
2023-07-03T10:25:16.548Z,9.98
2023-07-03T10:27:43.512Z,8.75
2023-07-03T10:30:16.443Z,9.50
2023-07-03T10:32:47.451Z,7.63
2023-07-03T10:35:25.340Z,8.88
2023-07-03T10:37:58.760Z,8.50
2023-07-03T10:40:33.948Z,5.88
2023-07-03T10:43:04.327Z,10.25
2023-07-03T10:45:33.468Z,9.02
2023-07-03T10:48:06.412Z,7.57
2023-07-03T10:50:42.913Z,9.73
2023-07-03T10:53:37.173Z,7.05
2023-07-03T10:56:18.827Z,8.80
2023-07-03T10:59:06.338Z,6.53
2023-07-03T11:02:11.747Z,7.72
2023-07-03T11:05:01.900Z,8.95
2023-07-03T11:07:39.814Z,6.82
2023-07-03T11:10:19.040Z,7.68
2023-07-03T11:12:57.314Z,10.00
2023-07-03T11:15:26.588Z,8.43
2023-07-03T11:23:30.702Z,7.50
2023-07-03T11:28:48.521Z,7.70
2023-07-03T11:31:16.468Z,10.32
2023-07-03T11:36:51.109Z,8.35
2023-07-03T11:44:32.940Z,5.75
2023-07-03T11:47:08.223Z,6.07
2023-07-03T11:49:38.981Z,9.32
2023-07-03T11:52:07.604Z,7.82
2023-07-03T11:54:36.642Z,6.78
2023-07-03T11:57:10.628Z,6.53
2023-07-03T11:59:40.111Z,9.35
2023-07-03T12:02:12.662Z,7.88
2023-07-03T12:04:49.173Z,7.95
2023-07-03T12:07:19.782Z,6.45
2023-07-03T12:09:52.483Z,10.48
2023-07-03T12:12:25.700Z,5.95
2023-07-03T12:14:55.379Z,7.30
2023-07-03T12:17:24.238Z,6.90
2023-07-03T12:20:14.037Z,6.90
2023-07-03T12:22:53.830Z,9.05
2023-07-03T12:25:25.159Z,11.93
2023-07-03T12:27:53.251Z,8.65
2023-07-03T12:30:29.274Z,7.85
2023-07-03T12:32:57.965Z,6.38
2023-07-03T12:35:31.842Z,10.57
2023-07-03T12:38:01.545Z,5.60
2023-07-03T12:40:28.069Z,6.47
2023-07-03T12:42:59.160Z,6.68
2023-07-03T12:45:34.731Z,3.38
2023-07-03T12:48:17.639Z,5.93
2023-07-03T12:50:49.530Z,5.25
2023-07-03T12:53:18.671Z,6.38
2023-07-03T12:55:58.609Z,4.43
2023-07-03T12:58:26.429Z,7.18
2023-07-03T13:01:01.422Z,5.85
2023-07-03T13:03:28.030Z,5.53
2023-07-03T13:05:54.878Z,3.92
2023-07-03T13:08:21.843Z,6.13
2023-07-03T13:11:01.608Z,6.95
2023-07-03T13:13:28.564Z,5.07
2023-07-03T13:15:55.142Z,6.28
2023-07-03T13:18:24.048Z,4.82
2023-07-03T13:20:55.618Z,6.28
2023-07-03T13:23:39.490Z,10.98
2023-07-03T13:26:09.641Z,10.18
2023-07-03T13:28:39.844Z,10.85
2023-07-03T13:31:17.003Z,11.60
2023-07-03T13:33:59.849Z,21.52
2023-07-03T13:36:38.643Z,19.40
2023-07-03T13:39:10.475Z,21.20
2023-07-03T13:41:38.539Z,18.70
2023-07-03T13:44:07.646Z,25.27
2023-07-03T13:46:35.141Z,18.77
2023-07-03T13:49:02.522Z,28.73
2023-07-03T13:51:30.822Z,29.08
2023-07-03T13:54:10.587Z,36.63
2023-07-03T13:56:39.640Z,25.83
2023-07-03T13:59:07.631Z,23.95
2023-07-03T14:01:35.515Z,26.15
2023-07-03T14:04:03.025Z,27.52
2023-07-03T14:06:30.375Z,17.30
2023-07-03T14:08:57.705Z,17.27
2023-07-03T14:11:24.282Z,26.75
2023-07-03T14:13:51.453Z,21.23
2023-07-03T14:16:18.223Z,9.52
2023-07-03T14:18:44.778Z,15.95
2023-07-03T14:21:16.477Z,14.85
2023-07-03T14:23:43.712Z,19.90
2023-07-03T14:26:12.651Z,23.52
2023-07-03T14:28:40.341Z,19.77
2023-07-03T14:31:08.615Z,19.35
2023-07-03T14:33:35.307Z,20.75
2023-07-03T14:36:01.962Z,17.50
2023-07-03T14:38:28.452Z,17.00
2023-07-03T14:40:55.005Z,19.23
2023-07-03T14:43:22.159Z,16.08
2023-07-03T14:45:49.264Z,11.45
2023-07-03T14:48:16.054Z,9.73
2023-07-03T14:50:42.585Z,11.93
2023-07-03T14:53:09.200Z,11.38
2023-07-03T14:55:36.855Z,13.27
2023-07-03T14:58:03.446Z,12.75
2023-07-03T15:00:29.922Z,14.48
2023-07-03T15:05:40.433Z,21.92
2023-07-03T15:08:06.922Z,18.98
2023-07-03T15:10:37.749Z,27.42
2023-07-03T15:13:06.361Z,28.50
2023-07-03T15:15:32.929Z,31.25
2023-07-03T15:18:00.488Z,24.40
2023-07-03T15:20:27.054Z,27.33
2023-07-03T15:22:53.839Z,23.13
2023-07-03T15:25:21.153Z,33.58
2023-07-03T15:27:47.777Z,32.25
2023-07-03T15:30:14.367Z,27.15
2023-07-03T15:32:40.890Z,32.15
2023-07-03T15:35:08.125Z,36.70
2023-07-03T15:37:34.672Z,31.63
2023-07-03T15:40:01.355Z,27.65
2023-07-03T15:42:27.850Z,49.15
2023-07-03T15:44:58.615Z,30.77
2023-07-03T15:47:26.196Z,41.22
2023-07-03T15:49:56.590Z,37.35
2023-07-03T15:52:23.716Z,33.30
2023-07-03T15:54:51.888Z,37.53
2023-07-03T15:57:19.205Z,33.80
2023-07-03T15:59:45.713Z,35.30
2023-07-03T16:02:12.190Z,21.20
2023-07-03T16:04:38.908Z,32.42
2023-07-03T16:07:05.575Z,18.70
2023-07-03T16:09:32.873Z,30.67
2023-07-03T16:11:59.311Z,26.63
2023-07-03T16:14:28.324Z,17.30
2023-07-03T16:16:54.892Z,19.30
2023-07-03T16:19:21.807Z,12.48
2023-07-03T16:21:49.204Z,12.05
2023-07-03T16:24:15.789Z,13.90
2023-07-03T16:26:42.732Z,8.32
2023-07-03T16:29:09.954Z,10.68
2023-07-03T16:31:38.857Z,10.88
2023-07-03T16:34:05.864Z,6.35
2023-07-03T16:36:32.463Z,13.25
2023-07-03T16:39:02.315Z,12.88
2023-07-03T16:41:30.979Z,16.35
2023-07-03T16:43:58.843Z,14.98
2023-07-03T16:46:27.718Z,17.65
2023-07-03T16:48:56.153Z,13.77
2023-07-03T16:51:24.157Z,11.13
2023-07-03T16:53:51.264Z,16.70
2023-07-03T16:56:22.429Z,15.10
2023-07-03T16:58:51.097Z,17.98
2023-07-03T17:01:20.593Z,7.45
2023-07-03T17:03:48.454Z,14.95
2023-07-03T17:06:19.747Z,7.55
2023-07-03T17:08:46.662Z,12.55
2023-07-03T17:11:13.137Z,10.10
2023-07-03T17:13:39.723Z,10.18
2023-07-03T17:16:06.582Z,9.48
2023-07-03T17:18:33.111Z,10.45
2023-07-03T17:20:59.566Z,7.00
2023-07-03T17:23:26.439Z,16.05
2023-07-03T17:25:55.428Z,7.10
2023-07-03T17:28:22.386Z,13.05
2023-07-03T17:30:50.137Z,8.88
2023-07-03T17:33:16.598Z,9.10
2023-07-03T17:35:45.759Z,13.00
2023-07-03T17:38:14.323Z,8.20
2023-07-03T17:40:43.670Z,7.38
2023-07-03T17:43:10.396Z,8.77
2023-07-03T17:45:36.901Z,8.27
2023-07-03T17:48:03.907Z,8.15
2023-07-03T17:50:30.537Z,8.65
2023-07-03T17:52:57.153Z,12.18
2023-07-03T17:55:23.794Z,8.38
2023-07-03T17:57:50.310Z,5.95
2023-07-03T18:00:16.875Z,8.10
2023-07-03T18:02:43.433Z,9.38
2023-07-03T18:05:10.080Z,8.77
2023-07-03T18:07:37.506Z,5.82
2023-07-03T18:10:04.606Z,5.20
2023-07-03T18:12:31.295Z,7.20
2023-07-03T18:14:57.920Z,9.23
2023-07-03T18:17:25.064Z,8.82
2023-07-03T18:19:51.494Z,7.95
2023-07-03T18:22:17.916Z,7.40
2023-07-03T18:24:44.595Z,6.82
2023-07-03T18:27:12.266Z,6.97
2023-07-03T18:29:38.784Z,7.60
2023-07-03T18:32:05.576Z,8.85
2023-07-03T18:34:32.134Z,7.10
2023-07-03T18:36:58.592Z,7.68
2023-07-03T18:39:25.176Z,10.95
2023-07-03T18:41:51.651Z,8.05
2023-07-03T18:44:18.093Z,8.20
2023-07-03T18:46:47.029Z,8.07
2023-07-03T18:49:15.188Z,7.45
2023-07-03T18:51:41.814Z,8.00
2023-07-03T18:54:08.333Z,9.60
2023-07-03T18:56:34.782Z,6.15
2023-07-03T18:59:01.239Z,8.02
2023-07-03T19:01:27.779Z,6.05
2023-07-03T19:03:54.474Z,5.30
2023-07-03T19:06:22.444Z,7.20
2023-07-03T19:08:49.018Z,6.55
2023-07-03T19:11:15.746Z,6.80
2023-07-03T19:13:42.223Z,7.88
2023-07-03T19:16:10.957Z,7.28
2023-07-03T19:18:38.384Z,5.43
2023-07-03T19:21:04.874Z,8.60
2023-07-03T19:23:31.322Z,6.38
2023-07-03T19:25:59.098Z,6.35
2023-07-03T19:28:27.048Z,7.22
2023-07-03T19:31:04.003Z,7.93
2023-07-03T19:33:31.019Z,9.15
2023-07-03T19:35:59.661Z,6.35
2023-07-03T19:38:30.271Z,6.93
2023-07-03T19:40:56.713Z,9.70
2023-07-03T19:43:23.224Z,8.88
2023-07-03T19:45:49.857Z,7.35
2023-07-03T19:48:17.396Z,8.95
2023-07-03T19:50:44.219Z,7.63
2023-07-03T19:53:10.974Z,6.43
2023-07-03T19:55:38.160Z,7.30
2023-07-03T19:58:05.231Z,6.22
2023-07-03T20:00:32.593Z,8.88
2023-07-03T20:02:59.443Z,7.00
2023-07-03T20:05:25.968Z,7.30
2023-07-03T20:07:52.810Z,6.72
2023-07-03T20:10:19.719Z,7.20
2023-07-03T20:12:51.349Z,7.53
2023-07-03T20:15:20.326Z,6.57
2023-07-03T20:17:47.126Z,7.50
2023-07-03T20:20:15.111Z,5.38
2023-07-03T20:22:45.536Z,7.45
2023-07-03T20:25:12.621Z,7.78
2023-07-03T20:27:39.165Z,6.78
2023-07-03T20:30:06.345Z,7.40
2023-07-03T20:32:34.660Z,8.38
2023-07-03T20:35:01.780Z,7.53
2023-07-03T20:37:28.447Z,4.80
2023-07-03T20:39:58.388Z,8.02
2023-07-03T20:42:24.909Z,5.85
2023-07-03T20:44:51.411Z,5.88
2023-07-03T20:47:18.192Z,5.22
2023-07-03T20:49:44.632Z,8.80
2023-07-03T20:52:12.525Z,6.13
2023-07-03T20:54:44.249Z,5.72
2023-07-03T20:57:11.300Z,5.10
2023-07-03T20:59:37.728Z,4.57
2023-07-03T21:02:04.641Z,5.88
2023-07-03T21:04:31.191Z,5.80
2023-07-03T21:06:58.193Z,4.43
2023-07-03T21:09:24.705Z,5.85
2023-07-03T21:11:51.349Z,5.82
2023-07-03T21:14:18.653Z,5.70
2023-07-03T21:16:45.241Z,3.83
2023-07-03T21:19:13.483Z,4.97
2023-07-03T21:21:40.316Z,5.25
2023-07-03T21:24:10.057Z,4.97
2023-07-03T21:26:36.885Z,7.05
2023-07-03T21:29:03.750Z,4.32
2023-07-03T21:31:32.815Z,6.47
2023-07-03T21:33:59.506Z,4.00
2023-07-03T21:36:28.352Z,3.88
2023-07-03T21:38:57.047Z,4.93
2023-07-03T21:41:26.656Z,6.65
2023-07-03T21:43:55.351Z,4.55
2023-07-03T21:46:23.922Z,5.35
2023-07-03T21:48:59.273Z,6.18
2023-07-03T21:51:28.019Z,5.00
2023-07-03T21:53:55.322Z,5.50
2023-07-03T21:56:24.127Z,4.00
2023-07-03T21:58:52.690Z,4.53
2023-07-03T22:01:29.061Z,8.15
2023-07-03T22:03:55.979Z,4.55
2023-07-03T22:06:24.686Z,4.65
2023-07-03T22:08:51.682Z,3.92
2023-07-03T22:11:18.846Z,5.90
2023-07-03T22:13:45.876Z,4.78
2023-07-03T22:16:16.652Z,2.90
2023-07-03T22:18:44.597Z,4.22
2023-07-03T22:21:11.590Z,5.05
2023-07-03T22:23:38.092Z,4.43
2023-07-03T22:26:04.567Z,3.03
2023-07-03T22:28:31.065Z,3.22
2023-07-03T22:30:58.879Z,3.75
2023-07-03T22:33:25.525Z,5.43
2023-07-03T22:35:53.713Z,4.22
2023-07-03T22:38:21.142Z,3.63
2023-07-03T22:40:52.198Z,4.53
2023-07-03T22:43:20.067Z,3.58
2023-07-03T22:45:46.861Z,3.35
2023-07-03T22:48:14.672Z,4.20
2023-07-03T22:50:42.154Z,3.80
2023-07-03T22:53:11.514Z,4.32
2023-07-03T22:55:42.432Z,4.30
2023-07-03T22:58:10.616Z,4.00
2023-07-03T23:00:41.086Z,5.05
2023-07-03T23:03:09.802Z,2.67
2023-07-03T23:05:45.948Z,3.03
2023-07-03T23:08:16.676Z,3.75
2023-07-03T23:10:54.029Z,4.70
2023-07-03T23:13:22.308Z,4.25
2023-07-03T23:16:05.736Z,3.22
2023-07-03T23:18:34.969Z,3.75
2023-07-03T23:21:04.736Z,3.70
2023-07-03T23:23:33.537Z,3.53
2023-07-03T23:26:03.080Z,3.85
2023-07-03T23:28:35.516Z,5.32
2023-07-03T23:31:08.680Z,5.03
2023-07-03T23:33:35.602Z,4.45
2023-07-03T23:36:06.133Z,3.60
2023-07-03T23:38:34.192Z,4.55
2023-07-03T23:41:02.405Z,5.78
2023-07-03T23:43:28.853Z,7.07
2023-07-03T23:45:55.961Z,5.35
2023-07-03T23:48:22.470Z,5.75
2023-07-03T23:51:00.297Z,3.08
2023-07-03T23:53:26.809Z,3.70
2023-07-03T23:55:53.805Z,3.72
2023-07-03T23:58:23.020Z,5.47
